Time;durP1;ratioP1;P1;durP2;ratioP2;P2;SDS_P1;SDS_P2;PMS_P1;PMS_P2;Temp;Humidity;BMP_temperature;BMP_pressure;BME280_temperature;BME280_humidity;BME280_pressure;Samples;Min_cycle;Max_cycle;Signal;HPM_P1;HPM_P2
2020/12/28 00:02:16;;;;;;;5.40;2.93;;;;;;;0.77;68.81;98062.44;4972069;28;20802;-69
2020/12/28 00:04:42;;;;;;;6.07;2.90;;;;;;;0.72;67.99;98059.94;4996660;28;20046;-68
2020/12/28 00:07:09;;;;;;;6.40;3.30;;;;;;;0.72;69.05;98062.53;4994937;28;20041;-74
2020/12/28 00:09:35;;;;;;;5.13;2.87;;;;;;;0.69;69.17;98060.03;4996051;28;20054;-72
2020/12/28 00:12:01;;;;;;;5.23;2.77;;;;;;;0.68;69.36;98062.66;5019318;28;20107;-71
2020/12/28 00:14:27;;;;;;;5.93;2.70;;;;;;;0.67;69.73;98061.78;5000287;28;20049;-71
2020/12/28 00:16:54;;;;;;;5.47;3.50;;;;;;;0.69;69.41;98064.38;4997427;28;20045;-70
2020/12/28 00:19:20;;;;;;;4.63;2.77;;;;;;;0.88;68.96;98054.41;4994283;28;20108;-70
2020/12/28 00:21:46;;;;;;;5.03;3.43;;;;;;;0.80;69.55;98054.56;4992528;28;20103;-70
2020/12/28 00:24:12;;;;;;;5.03;3.27;;;;;;;0.78;69.79;98057.22;4996510;28;20767;-70
2020/12/28 00:26:42;;;;;;;4.67;3.10;;;;;;;0.76;70.29;98052.94;4997620;28;20058;-70
2020/12/28 00:29:09;;;;;;;4.57;2.90;;;;;;;0.76;69.94;98042.56;4983988;28;20037;-70
2020/12/28 00:31:36;;;;;;;7.87;3.80;;;;;;;0.79;70.11;98047.66;4996349;28;20069;-72
2020/12/28 00:34:03;;;;;;;4.97;3.13;;;;;;;0.87;69.75;98040.53;4998607;28;20038;-72
2020/12/28 00:36:29;;;;;;;6.13;3.47;;;;;;;0.83;70.21;98036.28;5003123;28;20137;-72
2020/12/28 00:38:55;;;;;;;6.87;4.07;;;;;;;0.85;70.28;98042.34;4987059;28;20034;-71
2020/12/28 00:41:21;;;;;;;4.87;3.23;;;;;;;0.83;70.08;98047.53;5003919;28;20042;-71
2020/12/28 00:43:47;;;;;;;6.60;3.57;;;;;;;0.81;70.67;98033.75;4991632;28;20067;-72
2020/12/28 00:46:15;;;;;;;4.80;3.40;;;;;;;0.78;71.17;98027.78;4980735;28;20056;-71
2020/12/28 00:48:41;;;;;;;6.33;3.90;;;;;;;0.75;71.20;98026.06;4975445;28;20133;-71
2020/12/28 00:51:11;;;;;;;6.17;3.70;;;;;;;0.74;70.99;98011.38;5001055;28;20108;-73
2020/12/28 00:53:37;;;;;;;5.97;3.87;;;;;;;0.73;71.48;98016.63;4980139;28;20111;-71
2020/12/28 00:56:03;;;;;;;7.43;3.30;;;;;;;0.72;71.66;98026.16;4974632;28;20073;-71
2020/12/28 00:58:29;;;;;;;6.40;3.57;;;;;;;0.71;72.10;98000.22;4997836;28;20052;-69
2020/12/28 01:00:56;;;;;;;5.10;3.10;;;;;;;0.70;72.65;97995.91;4995096;28;20744;-69
2020/12/28 01:03:22;;;;;;;4.53;3.20;;;;;;;0.72;72.70;98002.78;4973502;28;20509;-69
2020/12/28 01:05:48;;;;;;;5.10;3.50;;;;;;;0.76;72.24;98000.97;4976595;28;20137;-69
2020/12/28 01:08:15;;;;;;;6.27;3.37;;;;;;;0.73;72.90;97995.84;4989672;28;20069;-69
2020/12/28 01:10:43;;;;;;;7.23;4.10;;;;;;;0.70;73.68;97995.91;4996617;28;20512;-70
2020/12/28 01:13:09;;;;;;;7.03;4.10;;;;;;;0.68;73.76;97997.69;4979188;28;20085;-70
2020/12/28 01:15:36;;;;;;;5.60;3.27;;;;;;;0.74;73.83;97994.94;4991241;28;20042;-71
2020/12/28 01:18:02;;;;;;;6.00;4.13;;;;;;;0.80;73.97;98005.19;4978992;28;20025;-70
2020/12/28 01:20:29;;;;;;;5.90;3.80;;;;;;;0.78;74.47;98005.22;5001284;28;20256;-70
2020/12/28 01:22:55;;;;;;;7.57;4.03;;;;;;;0.78;74.35;98009.59;4996939;28;20073;-70
2020/12/28 01:25:21;;;;;;;5.30;3.60;;;;;;;0.81;75.32;97989.56;4998802;28;20045;-72
2020/12/28 01:27:47;;;;;;;7.37;4.30;;;;;;;0.83;75.09;97992.97;4999697;28;20065;-72
2020/12/28 01:30:13;;;;;;;10.40;4.63;;;;;;;0.84;75.02;97988.63;5001487;28;20135;-72
2020/12/28 01:32:40;;;;;;;5.97;3.67;;;;;;;0.85;75.59;97974.75;4998275;28;20045;-70
2020/12/28 01:35:06;;;;;;;6.43;3.93;;;;;;;0.78;76.14;97979.25;4999051;28;20515;-71
2020/12/28 01:37:32;;;;;;;8.63;4.27;;;;;;;0.73;76.77;97970.69;4999392;28;20046;-69
2020/12/28 01:39:58;;;;;;;8.07;4.20;;;;;;;0.69;77.22;97958.69;4996918;28;20038;-70
2020/12/28 01:42:24;;;;;;;6.53;4.33;;;;;;;0.68;77.57;97956.97;4984040;28;20077;-69
2020/12/28 01:44:50;;;;;;;9.00;4.73;;;;;;;0.61;78.30;97949.38;4997782;28;20041;-69
2020/12/28 01:47:16;;;;;;;5.87;3.97;;;;;;;0.64;78.59;97952.72;4998144;28;20557;-70
2020/12/28 01:49:42;;;;;;;7.63;4.47;;;;;;;0.64;79.20;97944.94;4999630;28;20037;-70
2020/12/28 01:52:09;;;;;;;6.67;3.80;;;;;;;0.61;79.23;97938.97;5000145;28;20037;-71
2020/12/28 01:54:35;;;;;;;7.40;4.30;;;;;;;0.59;79.37;97926.03;4997012;28;20124;-73
2020/12/28 01:57:01;;;;;;;11.33;4.83;;;;;;;0.56;80.23;97916.53;4982366;28;20088;-71
2020/12/28 01:59:28;;;;;;;8.67;4.30;;;;;;;0.56;80.74;97923.50;5000260;28;20042;-71
2020/12/28 02:01:55;;;;;;;9.50;5.90;;;;;;;0.52;80.84;97922.72;4999058;28;20049;-69
2020/12/28 02:04:22;;;;;;;7.37;4.67;;;;;;;0.55;81.01;97917.44;4997558;28;20116;-68
2020/12/28 02:06:49;;;;;;;8.73;5.00;;;;;;;0.54;81.39;97920.94;5001247;28;20081;-68
2020/12/28 02:09:15;;;;;;;9.87;5.93;;;;;;;0.50;81.77;97921.03;4999467;28;20046;-68
2020/12/28 02:11:41;;;;;;;10.57;5.10;;;;;;;0.51;81.42;97918.41;4998698;28;20108;-69
2020/12/28 02:14:08;;;;;;;8.33;5.03;;;;;;;0.48;81.93;97925.41;4999591;28;20551;-70
2020/12/28 02:16:34;;;;;;;10.23;5.37;;;;;;;0.40;82.75;97925.59;4983595;28;20049;-70
2020/12/28 02:19:01;;;;;;;8.60;4.70;;;;;;;0.42;82.56;97934.22;4999148;28;20052;-70
2020/12/28 02:21:27;;;;;;;8.20;5.40;;;;;;;0.50;82.72;97942.66;4981708;28;20129;-70
2020/12/28 02:23:53;;;;;;;8.17;5.03;;;;;;;0.47;83.01;97950.53;5000694;28;20073;-70
2020/12/28 02:26:19;;;;;;;7.17;4.40;;;;;;;0.40;83.44;97951.56;4997833;28;20413;-70
2020/12/28 02:28:45;;;;;;;8.67;4.67;;;;;;;0.36;83.75;97952.53;4998252;28;20062;-72
2020/12/28 02:31:11;;;;;;;8.47;4.70;;;;;;;0.34;83.99;97954.31;5001910;28;20479;-75
2020/12/28 02:33:40;;;;;;;7.77;4.30;;;;;;;0.31;84.35;97956.13;5000940;28;20515;-70
2020/12/28 02:36:08;;;;;;;7.80;4.97;;;;;;;0.34;84.51;97959.53;4998254;28;20045;-71
2020/12/28 02:38:37;;;;;;;9.20;5.40;;;;;;;0.32;84.73;97948.28;5001385;28;20042;-72
2020/12/28 02:41:04;;;;;;;8.40;4.60;;;;;;;0.34;84.98;97948.25;5002923;28;20088;-72
2020/12/28 02:43:30;;;;;;;8.93;5.00;;;;;;;0.24;85.25;97952.81;5005298;28;20120;-72
2020/12/28 02:45:58;;;;;;;9.00;4.77;;;;;;;0.21;85.77;97966.72;5002943;28;20050;-72
2020/12/28 02:48:24;;;;;;;8.80;4.93;;;;;;;0.16;85.66;97973.75;4999513;28;20088;-73
2020/12/28 02:50:50;;;;;;;7.20;4.60;;;;;;;0.07;86.18;97973.09;5001926;28;20084;-75
2020/12/28 02:53:17;;;;;;;8.00;5.00;;;;;;;-0.01;86.51;97975.84;5019561;28;20038;-75
2020/12/28 02:55:43;;;;;;;7.23;4.37;;;;;;;-0.09;86.92;97980.34;4993894;28;20093;-72
2020/12/28 02:58:10;;;;;;;9.10;5.43;;;;;;;-0.14;87.46;97984.78;5011604;28;20116;-72
2020/12/28 03:00:36;;;;;;;7.13;4.93;;;;;;;-0.13;87.83;97974.38;5011097;28;20042;-77
2020/12/28 03:03:02;;;;;;;9.10;5.37;;;;;;;-0.15;87.97;97960.59;5005666;28;20048;-75
2020/12/28 03:05:29;;;;;;;7.93;4.77;;;;;;;-0.17;88.33;97958.88;4992609;28;20049;-73
2020/12/28 03:07:55;;;;;;;9.93;5.37;;;;;;;-0.18;87.77;97968.41;5010837;28;20042;-72
2020/12/28 03:10:22;;;;;;;10.30;5.53;;;;;;;-0.15;88.16;97960.59;5018334;28;20046;-71
2020/12/28 03:12:48;;;;;;;9.43;5.10;;;;;;;-0.21;88.67;97968.47;4978942;28;20458;-71
2020/12/28 03:15:14;;;;;;;8.63;4.97;;;;;;;-0.26;88.63;97969.44;5010162;28;20042;-71
2020/12/28 03:17:40;;;;;;;11.87;5.93;;;;;;;-0.27;88.57;97966.00;5008697;28;20037;-69
2020/12/28 03:20:06;;;;;;;8.40;4.87;;;;;;;-0.33;89.40;97968.75;5002936;28;20101;-69
2020/12/28 03:22:32;;;;;;;11.00;5.23;;;;;;;-0.25;89.40;97964.25;4999875;28;20072;-71
2020/12/28 03:24:58;;;;;;;8.97;5.20;;;;;;;-0.33;89.30;97956.63;4994191;28;20044;-76
2020/12/28 03:27:25;;;;;;;11.00;6.13;;;;;;;-0.28;89.24;97951.31;5005051;28;20045;-76
2020/12/28 03:29:52;;;;;;;10.30;6.07;;;;;;;-0.34;89.46;97956.63;5009095;28;20053;-71
2020/12/28 03:32:18;;;;;;;9.97;6.27;;;;;;;-0.35;89.46;97948.00;4987337;28;20038;-71
2020/12/28 03:34:44;;;;;;;9.47;5.43;;;;;;;-0.37;90.14;97942.00;4994384;28;20045;-71
2020/12/28 03:37:10;;;;;;;9.53;5.47;;;;;;;-0.41;90.68;97939.50;5004134;28;20496;-71
2020/12/28 03:39:36;;;;;;;9.13;5.60;;;;;;;-0.40;91.07;97921.31;5005825;28;20068;-71
2020/12/28 03:42:06;;;;;;;11.53;5.53;;;;;;;-0.40;90.78;97936.88;5008843;28;20050;-71
2020/12/28 03:44:32;;;;;;;10.97;6.10;;;;;;;-0.34;90.75;97930.69;5001696;28;20495;-71
2020/12/28 03:46:58;;;;;;;11.03;6.43;;;;;;;-0.36;90.86;97927.28;5001250;28;20589;-71
2020/12/28 03:49:25;;;;;;;11.13;6.23;;;;;;;-0.32;90.98;97939.31;5000916;28;20111;-73
2020/12/28 03:51:52;;;;;;;10.57;5.43;;;;;;;-0.32;91.29;97932.38;5025835;28;20040;-71
2020/12/28 03:54:18;;;;;;;9.90;5.73;;;;;;;-0.31;90.93;97928.91;5001286;28;20042;-69
2020/12/28 03:56:45;;;;;;;10.37;6.30;;;;;;;-0.30;91.85;97934.94;5001573;28;20605;-69
2020/12/28 03:59:11;;;;;;;9.53;5.83;;;;;;;-0.22;91.78;97934.78;5005640;28;20081;-69
2020/12/28 04:01:37;;;;;;;10.17;5.60;;;;;;;-0.24;91.63;97932.22;5002199;28;20809;-69
2020/12/28 04:04:03;;;;;;;10.33;5.90;;;;;;;-0.29;92.08;97931.47;4991407;28;20069;-72
2020/12/28 04:06:29;;;;;;;12.67;6.93;;;;;;;-0.29;91.95;97932.31;5008829;28;20073;-74
2020/12/28 04:08:55;;;;;;;10.27;5.70;;;;;;;-0.27;91.79;97927.09;5009174;28;20042;-74
2020/12/28 04:11:21;;;;;;;11.60;6.33;;;;;;;-0.21;92.30;97916.59;5007698;28;20042;-75
2020/12/28 04:13:48;;;;;;;11.00;6.60;;;;;;;-0.27;92.24;97921.91;5008835;28;20522;-75
2020/12/28 04:16:16;;;;;;;10.70;5.90;;;;;;;-0.29;92.96;97915.91;5010930;28;20038;-71
2020/12/28 04:18:42;;;;;;;9.67;6.10;;;;;;;-0.28;93.22;97918.47;4997772;28;20565;-72
2020/12/28 04:21:08;;;;;;;10.27;6.03;;;;;;;-0.25;93.09;97912.38;4995992;28;20038;-69
2020/12/28 04:23:34;;;;;;;8.30;5.70;;;;;;;-0.20;93.18;97918.28;4985889;28;20070;-69
2020/12/28 04:26:00;;;;;;;11.23;5.90;;;;;;;-0.13;92.36;97919.88;4989875;28;20283;-70
2020/12/28 04:28:26;;;;;;;11.30;5.70;;;;;;;-0.06;92.72;97887.72;5003713;28;20073;-69
2020/12/28 04:30:53;;;;;;;10.03;6.30;;;;;;;-0.13;93.03;97869.72;4993388;28;20046;-69
2020/12/28 04:33:19;;;;;;;10.87;6.63;;;;;;;-0.11;92.69;97868.78;5000742;28;20048;-69
2020/12/28 04:35:45;;;;;;;9.07;5.57;;;;;;;-0.14;93.49;97891.38;4999193;28;20042;-69
2020/12/28 04:38:11;;;;;;;9.37;5.87;;;;;;;-0.10;93.01;97878.28;5000007;28;20034;-70
2020/12/28 04:40:38;;;;;;;12.33;5.87;;;;;;;-0.08;93.16;97875.69;5004965;28;20092;-69
2020/12/28 04:43:10;;;;;;;10.50;5.97;;;;;;;-0.08;93.46;97867.91;4988492;28;20042;-69
2020/12/28 04:45:37;;;;;;;9.30;6.37;;;;;;;-0.05;93.67;97871.25;5002478;28;20046;-70
2020/12/28 04:48:08;;;;;;;10.33;5.83;;;;;;;-0.08;93.46;97866.16;4979654;28;20054;-70
2020/12/28 04:50:36;;;;;;;10.03;5.70;;;;;;;-0.08;93.93;97863.56;4985694;28;20510;-70
2020/12/28 04:53:04;;;;;;;10.93;6.10;;;;;;;-0.02;93.96;97862.53;4984038;28;20037;-69
2020/12/28 04:55:30;;;;;;;10.00;5.97;;;;;;;-0.02;94.19;97849.56;4997564;28;20073;-69
2020/12/28 04:57:57;;;;;;;9.60;5.80;;;;;;;-0.04;94.18;97849.59;4993544;28;20042;-69
2020/12/28 05:00:24;;;;;;;11.37;6.10;;;;;;;0.03;94.15;97841.69;5005878;28;20528;-69
2020/12/28 05:02:52;;;;;;;10.23;6.30;;;;;;;0.04;94.68;97843.38;5005373;28;20049;-73
2020/12/28 05:05:18;;;;;;;9.40;6.03;;;;;;;0.03;94.60;97841.69;4992192;28;20033;-73
2020/12/28 05:07:49;;;;;;;10.97;6.03;;;;;;;0.20;93.85;97844.72;5007481;28;20151;-72
2020/12/28 05:10:23;;;;;;;10.23;6.30;;;;;;;0.07;94.69;97849.34;5008225;28;20038;-70
2020/12/28 05:12:49;;;;;;;9.27;6.00;;;;;;;0.11;94.58;97860.53;4999980;28;20385;-71
2020/12/28 05:15:15;;;;;;;8.40;5.77;;;;;;;0.08;94.63;97855.38;5009141;28;20033;-74
2020/12/28 05:17:41;;;;;;;7.97;5.57;;;;;;;0.09;94.47;97844.16;5008510;28;20054;-73
2020/12/28 05:20:08;;;;;;;8.80;5.33;;;;;;;0.07;95.07;97849.34;5003078;28;20454;-72
2020/12/28 05:22:34;;;;;;;9.90;6.53;;;;;;;0.07;95.17;97845.91;5001156;28;20492;-72
2020/12/28 05:25:00;;;;;;;7.80;5.43;;;;;;;0.02;95.07;97839.97;4998416;28;20165;-72
2020/12/28 05:27:26;;;;;;;9.07;5.50;;;;;;;0.03;95.82;97839.94;4992202;28;20088;-72
2020/12/28 05:29:53;;;;;;;8.03;5.43;;;;;;;0.08;95.44;97830.28;5000319;28;20116;-72
2020/12/28 05:32:19;;;;;;;9.90;5.80;;;;;;;0.10;95.31;97831.13;5011634;28;20492;-72
2020/12/28 05:34:47;;;;;;;8.90;5.77;;;;;;;0.16;95.71;97830.09;4995785;28;20042;-75
2020/12/28 05:37:14;;;;;;;10.43;6.33;;;;;;;0.22;95.38;97827.38;4988313;28;20038;-76
2020/12/28 05:39:41;;;;;;;9.77;5.77;;;;;;;0.19;94.93;97828.31;5005305;28;20034;-71
2020/12/28 05:42:10;;;;;;;10.53;5.57;;;;;;;0.16;95.30;97822.31;5006832;28;20065;-74
2020/12/28 05:44:36;;;;;;;10.43;6.57;;;;;;;0.19;95.24;97828.31;4988256;28;20097;-73
2020/12/28 05:47:13;;;;;;;9.37;5.80;;;;;;;0.22;95.17;97824.78;5005094;28;20046;-71
2020/12/28 05:49:44;;;;;;;10.37;6.20;;;;;;;0.24;95.12;97835.97;4973421;28;20041;-76
2020/12/28 05:52:12;;;;;;;9.30;5.93;;;;;;;0.24;95.16;97828.16;5008949;28;20085;-69
2020/12/28 05:54:38;;;;;;;8.00;5.73;;;;;;;0.29;94.86;97831.53;5001030;28;20096;-71
2020/12/28 05:57:08;;;;;;;8.90;5.40;;;;;;;0.31;94.92;97821.94;5003243;28;20156;-71
2020/12/28 05:59:35;;;;;;;8.03;5.60;;;;;;;0.31;94.71;97823.69;5000784;28;20037;-70
2020/12/28 06:02:02;;;;;;;9.37;6.37;;;;;;;0.27;94.90;97826.38;5002603;28;20097;-72
2020/12/28 06:04:28;;;;;;;8.87;5.37;;;;;;;0.24;95.15;97833.38;5000485;28;20065;-72
2020/12/28 06:07:03;;;;;;;9.07;5.50;;;;;;;0.23;95.73;97829.91;4992858;28;20038;-72
2020/12/28 06:09:29;;;;;;;9.05;5.68;;;;;;;0.18;95.44;97830.94;5000775;28;20092;-72
2020/12/28 06:12:06;;;;;;;8.07;6.30;;;;;;;0.31;95.43;97834.94;4995389;28;20064;-71
2020/12/28 06:14:37;;;;;;;8.20;5.60;;;;;;;0.32;95.81;97827.97;5000935;28;20042;-71
2020/12/28 06:17:08;;;;;;;9.23;5.60;;;;;;;0.32;95.26;97810.66;4977951;28;20436;-71
2020/12/28 06:19:34;;;;;;;8.97;5.80;;;;;;;0.26;95.35;97818.63;4988895;28;20069;-71
2020/12/28 06:22:01;;;;;;;8.77;6.20;;;;;;;0.31;95.33;97818.50;5003625;28;20073;-71
2020/12/28 06:24:31;;;;;;;8.40;5.13;;;;;;;0.24;95.63;97812.59;5001059;28;20220;-71
2020/12/28 06:27:07;;;;;;;8.77;6.23;;;;;;;0.27;95.85;97812.53;5002915;28;20113;-71
2020/12/28 06:29:34;;;;;;;10.02;6.32;;;;;;;0.26;95.93;97816.03;4988615;28;20045;-76
2020/12/28 06:32:15;;;;;;;8.90;5.63;;;;;;;0.29;95.80;97797.78;5012255;28;20088;-73
2020/12/28 06:34:44;;;;;;;8.93;5.77;;;;;;;0.26;95.62;97813.44;5012095;28;20089;-72
2020/12/28 06:37:10;;;;;;;9.50;5.83;;;;;;;0.25;95.95;97811.69;4995720;28;20041;-72
2020/12/28 06:39:36;;;;;;;7.53;5.70;;;;;;;0.21;96.09;97820.47;4996031;28;20038;-74
2020/12/28 06:42:07;;;;;;;8.93;5.93;;;;;;;0.22;96.20;97829.97;4993977;28;20100;-72
2020/12/28 06:44:33;;;;;;;9.23;5.63;;;;;;;0.17;96.62;97822.31;5004489;28;20046;-72
2020/12/28 06:47:00;;;;;;;9.20;5.97;;;;;;;0.11;96.91;97812.06;5006280;28;20038;-71
2020/12/28 06:49:26;;;;;;;8.73;6.00;;;;;;;0.04;97.46;97815.69;4991577;28;20042;-71
2020/12/28 06:51:52;;;;;;;8.93;6.30;;;;;;;0.11;97.66;97806.00;5004634;28;20223;-71
2020/12/28 06:54:22;;;;;;;9.63;5.80;;;;;;;0.09;97.51;97807.81;5007672;28;20100;-71
2020/12/28 06:56:49;;;;;;;9.00;6.03;;;;;;;0.02;97.34;97806.25;4987129;28;20088;-71
2020/12/28 06:59:15;;;;;;;7.97;5.67;;;;;;;-0.04;97.61;97802.03;4998282;28;20080;-71
2020/12/28 07:01:46;;;;;;;9.57;5.07;;;;;;;-0.07;98.19;97813.34;4999903;28;20053;-71
2020/12/28 07:04:13;;;;;;;9.47;6.03;;;;;;;-0.06;98.63;97812.47;5002608;28;20507;-71
2020/12/28 07:06:39;;;;;;;10.40;6.13;;;;;;;-0.06;99.34;97796.88;5003777;28;20553;-71
2020/12/28 07:09:06;;;;;;;9.63;6.37;;;;;;;-0.03;99.32;97790.75;5003403;28;20057;-71
2020/12/28 07:11:33;;;;;;;8.67;5.97;;;;;;;-0.01;98.91;97792.41;4988539;28;20104;-72
2020/12/28 07:14:04;;;;;;;8.67;5.57;;;;;;;0.02;99.04;97777.69;5002528;28;20074;-71
2020/12/28 07:16:30;;;;;;;9.03;5.67;;;;;;;-0.03;99.65;97798.56;5003724;28;20100;-70
2020/12/28 07:19:06;;;;;;;9.47;6.73;;;;;;;-0.01;99.64;97795.03;4990315;28;20100;-71
2020/12/28 07:21:33;;;;;;;8.97;5.97;;;;;;;-0.06;99.09;97803.81;5012083;28;20045;-70
2020/12/28 07:23:59;;;;;;;9.20;6.63;;;;;;;-0.04;99.62;97805.47;5009537;28;20049;-70
2020/12/28 07:26:27;;;;;;;10.37;6.13;;;;;;;-0.03;100.00;97796.81;5009439;28;20037;-71
2020/12/28 07:28:53;;;;;;;8.73;6.03;;;;;;;0.02;100.00;97803.66;4980862;28;20042;-70
2020/12/28 07:31:23;;;;;;;10.83;6.70;;;;;;;0.01;99.67;97791.56;4991967;28;20084;-69
2020/12/28 07:33:50;;;;;;;7.87;6.20;;;;;;;0.00;100.00;97785.53;5002360;28;20038;-69
2020/12/28 07:36:20;;;;;;;7.73;5.73;;;;;;;-0.03;99.89;97777.78;5008424;28;20053;-70
2020/12/28 07:38:48;;;;;;;9.00;5.90;;;;;;;0.01;100.00;97784.63;4997625;28;20041;-70
2020/12/28 07:41:17;;;;;;;12.20;6.77;;;;;;;0.03;100.00;97787.19;5002490;28;20095;-69
2020/12/28 07:43:57;;;;;;;9.30;6.03;;;;;;;0.13;100.00;97797.28;5002591;28;20450;-70
2020/12/28 07:46:33;;;;;;;11.23;7.10;;;;;;;0.19;99.87;97802.34;4990400;28;20042;-70
2020/12/28 07:49:15;;;;;;;8.80;6.17;;;;;;;0.23;99.84;97790.13;5004764;28;20402;-70
2020/12/28 07:51:42;;;;;;;8.67;5.87;;;;;;;0.30;99.42;97789.09;5006966;28;20104;-70
2020/12/28 07:54:15;;;;;;;7.87;5.90;;;;;;;0.32;98.93;97812.41;5007156;28;20542;-70
2020/12/28 07:56:45;;;;;;;10.40;6.50;;;;;;;0.35;99.02;97810.59;5006209;28;20088;-70
2020/12/28 07:59:45;;;;;;;10.10;5.83;;;;;;;0.37;98.65;97806.22;5006857;28;20044;-70
2020/12/28 08:02:31;;;;;;;8.43;6.17;;;;;;;0.41;98.71;97810.44;5011249;28;20046;-72
2020/12/28 08:04:58;;;;;;;10.07;6.80;;;;;;;0.46;98.76;97803.38;4996361;28;20040;-69
2020/12/28 08:07:24;;;;;;;11.00;6.33;;;;;;;0.51;98.24;97809.31;5005139;28;20460;-70
2020/12/28 08:09:54;;;;;;;8.77;6.20;;;;;;;0.54;98.61;97804.03;5014161;28;20505;-70
2020/12/28 08:12:20;;;;;;;9.70;6.43;;;;;;;0.59;97.66;97803.06;5005451;28;20033;-71
2020/12/28 08:14:51;;;;;;;10.10;6.17;;;;;;;0.62;97.65;97790.00;5025436;28;20121;-72
2020/12/28 08:17:18;;;;;;;8.33;6.47;;;;;;;0.69;96.99;97804.53;5001315;28;20054;-72
2020/12/28 08:19:44;;;;;;;10.53;7.23;;;;;;;0.72;97.04;97812.25;5000518;28;20069;-75
2020/12/28 08:22:22;;;;;;;11.03;7.33;;;;;;;0.75;96.71;97818.19;5017803;28;20468;-72
2020/12/28 08:25:04;;;;;;;13.43;9.50;;;;;;;0.78;96.76;97815.53;4988607;28;20037;-70
2020/12/28 08:27:32;;;;;;;15.77;11.07;;;;;;;0.83;96.70;97820.59;4987984;28;20108;-70
2020/12/28 08:29:59;;;;;;;138.70;65.00;;;;;;;0.84;96.37;97817.97;4989122;28;20037;-70
2020/12/28 08:32:26;;;;;;;11.10;7.33;;;;;;;0.88;96.08;97823.94;5003013;28;20038;-70
2020/12/28 08:34:57;;;;;;;11.43;7.03;;;;;;;0.92;95.77;97815.13;5003052;28;20034;-70
2020/12/28 08:37:31;;;;;;;9.50;6.30;;;;;;;0.96;95.69;97813.31;4970468;28;20046;-70
2020/12/28 08:39:57;;;;;;;8.87;6.10;;;;;;;1.05;95.01;97820.88;4991270;28;20034;-71
2020/12/28 08:42:34;;;;;;;13.33;8.67;;;;;;;1.00;95.66;97820.13;5003070;28;20089;-73
2020/12/28 08:45:03;;;;;;;8.90;6.67;;;;;;;1.02;95.47;97818.38;4997886;28;20038;-71
2020/12/28 08:47:30;;;;;;;9.37;6.47;;;;;;;1.06;94.92;97823.41;5010509;28;20076;-72
2020/12/28 08:49:56;;;;;;;10.47;6.83;;;;;;;1.06;95.02;97828.63;5000077;28;20038;-71
2020/12/28 08:52:23;;;;;;;6.77;5.43;;;;;;;1.08;95.23;97821.63;5004108;28;20034;-72
2020/12/28 08:54:57;;;;;;;10.47;6.80;;;;;;;1.09;95.50;97820.75;5020613;28;20273;-71
2020/12/28 08:57:28;;;;;;;10.70;5.80;;;;;;;1.18;94.69;97816.16;5007909;28;20483;-72
2020/12/28 08:59:56;;;;;;;8.43;6.27;;;;;;;1.17;94.09;97819.66;4989491;28;20070;-70
2020/12/28 09:02:27;;;;;;;23.00;20.67;;;;;;;1.20;94.21;97819.59;4989715;28;20107;-70
2020/12/28 09:04:54;;;;;;;9.87;7.00;;;;;;;1.25;93.97;97820.28;5003916;28;20041;-70
2020/12/28 09:07:22;;;;;;;13.27;8.37;;;;;;;1.30;93.58;97818.44;5011252;28;20045;-70
2020/12/28 09:09:49;;;;;;;20.50;11.80;;;;;;;1.33;93.62;97821.78;5004532;28;20045;-70
2020/12/28 09:12:18;;;;;;;11.80;6.20;;;;;;;1.37;93.02;97812.16;4995096;28;20069;-70
2020/12/28 09:14:44;;;;;;;8.77;6.30;;;;;;;1.43;93.01;97814.59;4998572;28;20577;-70
2020/12/28 09:17:16;;;;;;;28.90;13.87;;;;;;;1.45;92.90;97809.34;4996847;28;20033;-70
2020/12/28 09:19:43;;;;;;;8.33;5.77;;;;;;;1.49;92.55;97805.72;4995808;28;20046;-70
2020/12/28 09:22:09;;;;;;;14.33;7.90;;;;;;;1.49;92.51;97806.56;4988923;28;20057;-70
2020/12/28 09:24:35;;;;;;;9.20;5.93;;;;;;;1.52;92.15;97801.31;4998667;28;20052;-76
2020/12/28 09:27:02;;;;;;;7.90;5.90;;;;;;;1.57;91.74;97791.59;4996769;28;20129;-74
2020/12/28 09:29:28;;;;;;;32.97;14.63;;;;;;;1.56;92.07;97786.44;4991240;28;20530;-74
2020/12/28 09:31:54;;;;;;;16.47;9.87;;;;;;;1.55;91.99;97776.94;5007682;28;20092;-72
2020/12/28 09:34:20;;;;;;;77.40;29.23;;;;;;;1.56;92.01;97778.63;5007241;28;20088;-72
2020/12/28 09:36:46;;;;;;;14.40;7.83;;;;;;;1.57;91.83;97783.78;4990519;28;20052;-71
2020/12/28 09:39:12;;;;;;;11.77;8.00;;;;;;;1.56;91.81;97774.28;5006349;28;20569;-70
2020/12/28 09:41:39;;;;;;;15.70;13.20;;;;;;;1.61;91.96;97761.13;5005290;28;20092;-69
2020/12/28 09:44:05;;;;;;;25.60;23.00;;;;;;;1.64;91.74;97767.09;5005157;28;20075;-69
2020/12/28 09:46:32;;;;;;;10.00;7.90;;;;;;;1.63;91.29;97762.78;5015440;28;20045;-70
2020/12/28 09:48:58;;;;;;;11.50;9.40;;;;;;;1.67;91.32;97766.13;5003768;28;20088;-69
2020/12/28 09:51:24;;;;;;;9.10;5.77;;;;;;;1.73;91.27;97765.09;5002140;28;20068;-69
2020/12/28 09:53:50;;;;;;;9.07;6.40;;;;;;;1.75;90.74;97758.09;4987676;28;20038;-72
2020/12/28 09:56:26;;;;;;;10.17;6.63;;;;;;;1.74;90.64;97754.63;5007923;28;20051;-69
2020/12/28 09:58:52;;;;;;;7.90;6.23;;;;;;;1.83;89.76;97750.88;4976126;28;20167;-70
2020/12/28 10:01:19;;;;;;;9.63;6.43;;;;;;;1.87;89.65;97761.16;4984730;28;20097;-70
2020/12/28 10:03:45;;;;;;;8.47;6.03;;;;;;;1.87;89.75;97762.91;5005855;28;20042;-70
2020/12/28 10:06:31;;;;;;;10.03;6.43;;;;;;;1.90;89.80;97760.22;4986930;28;20053;-70
2020/12/28 10:09:05;;;;;;;7.67;5.20;;;;;;;1.98;88.90;97769.47;5010410;28;20041;-71
2020/12/28 10:11:31;;;;;;;10.65;6.50;;;;;;;1.96;89.06;97775.66;5023119;28;20038;-72
2020/12/28 10:13:58;;;;;;;10.57;7.03;;;;;;;1.97;89.07;97775.59;5025256;28;20049;-69
2020/12/28 10:16:26;;;;;;;9.53;5.67;;;;;;;2.04;88.91;97767.59;4988973;28;20037;-70
2020/12/28 10:18:53;;;;;;;7.87;5.83;;;;;;;2.19;88.18;97762.72;5003559;28;20038;-70
2020/12/28 10:21:20;;;;;;;9.60;6.57;;;;;;;2.31;87.93;97765.81;5000942;28;20041;-70
2020/12/28 10:23:47;;;;;;;9.43;6.33;;;;;;;2.28;87.24;97784.16;5002244;28;20034;-71
2020/12/28 10:26:21;;;;;;;8.30;5.50;;;;;;;2.32;86.94;97770.13;5002964;28;20088;-71
2020/12/28 10:28:49;;;;;;;8.97;6.03;;;;;;;2.41;87.22;97772.41;5008226;28;20057;-76
2020/12/28 10:31:16;;;;;;;10.53;6.43;;;;;;;2.39;86.69;97769.00;5007645;28;20523;-70
2020/12/28 10:33:49;;;;;;;13.10;9.43;;;;;;;2.34;86.57;97769.16;5011108;28;20142;-71
2020/12/28 10:36:28;;;;;;;9.70;6.30;;;;;;;2.39;86.56;97774.22;5021608;28;20046;-72
2020/12/28 10:38:57;;;;;;;9.60;5.87;;;;;;;2.48;87.03;97768.69;4993313;28;20061;-71
2020/12/28 10:41:27;;;;;;;10.33;5.87;;;;;;;2.45;85.79;97768.81;5018047;28;20377;-71
2020/12/28 10:43:54;;;;;;;7.97;5.90;;;;;;;2.46;86.63;97771.38;5009765;28;20518;-69
2020/12/28 10:46:21;;;;;;;8.17;5.50;;;;;;;2.44;87.14;97772.31;4989982;28;20421;-70
2020/12/28 10:48:47;;;;;;;8.20;5.70;;;;;;;2.47;86.75;97770.44;4989317;28;20030;-72
2020/12/28 10:51:14;;;;;;;9.10;6.00;;;;;;;2.47;86.76;97772.22;5004697;28;20034;-72
2020/12/28 10:53:40;;;;;;;8.30;5.67;;;;;;;2.46;86.00;97770.50;4991356;28;20489;-71
2020/12/28 10:56:07;;;;;;;7.63;5.57;;;;;;;2.47;86.12;97765.25;5006730;28;20046;-71
2020/12/28 10:58:36;;;;;;;7.83;5.33;;;;;;;2.47;86.57;97760.03;5014246;28;20156;-72
2020/12/28 11:01:05;;;;;;;8.27;6.30;;;;;;;2.54;85.93;97756.31;5024979;28;20042;-75
2020/12/28 11:03:31;;;;;;;9.73;6.20;;;;;;;2.65;85.62;97750.72;5002930;28;20088;-70
2020/12/28 11:05:57;;;;;;;7.47;5.73;;;;;;;2.78;85.25;97754.59;5011558;28;20466;-72
2020/12/28 11:08:23;;;;;;;7.17;5.30;;;;;;;2.99;84.95;97746.91;5017529;28;20033;-72
2020/12/28 11:10:49;;;;;;;7.40;5.10;;;;;;;3.18;83.96;97742.69;5008826;28;20446;-73
2020/12/28 11:13:15;;;;;;;8.27;5.23;;;;;;;3.45;81.85;97730.38;5005508;28;20042;-71
2020/12/28 11:15:42;;;;;;;8.40;5.10;;;;;;;3.57;81.57;97732.50;5004497;28;20045;-69
2020/12/28 11:18:09;;;;;;;11.10;6.17;;;;;;;3.81;80.06;97717.63;4993687;28;20188;-70
2020/12/28 11:20:35;;;;;;;8.07;5.40;;;;;;;3.92;78.81;97722.41;5006302;28;20060;-71
2020/12/28 11:23:01;;;;;;;9.27;6.13;;;;;;;4.04;77.55;97721.94;5007961;28;20049;-71
2020/12/28 11:25:27;;;;;;;7.97;5.60;;;;;;;4.05;78.36;97720.16;5002864;28;20038;-71
2020/12/28 11:27:53;;;;;;;9.00;6.50;;;;;;;4.07;77.37;97721.78;5000776;28;20348;-71
2020/12/28 11:30:19;;;;;;;6.77;5.43;;;;;;;4.24;78.75;97710.63;5006557;28;20484;-71
2020/12/28 11:32:45;;;;;;;7.57;4.93;;;;;;;4.38;77.07;97717.91;5007362;28;20046;-71
2020/12/28 11:35:11;;;;;;;8.30;4.40;;;;;;;4.31;76.63;97717.31;5006938;28;20570;-71
2020/12/28 11:37:37;;;;;;;6.67;5.50;;;;;;;4.27;76.21;97713.09;5000768;28;20131;-71
2020/12/28 11:40:04;;;;;;;6.50;4.73;;;;;;;4.37;76.73;97713.56;5001304;28;20400;-71